Time;durP1;ratioP1;P1;durP2;ratioP2;P2;SDS_P1;SDS_P2;PMS_P1;PMS_P2;Temp;Humidity;BMP_temperature;BMP_pressure;BME280_temperature;BME280_humidity;BME280_pressure;Samples;Min_cycle;Max_cycle;Signal;HPM_P1;HPM_P2
2022/09/01 00:02:14;;;;;;;2.50;0.85;;;;;;;;;;5046200;28;20049;-62
2022/09/01 00:04:43;;;;;;;1.80;0.80;;;;;;;;;;5028744;28;20060;-61
2022/09/01 00:07:10;;;;;;;0.73;0.65;;;;;;;;;;5035188;28;20132;-62
2022/09/01 00:09:39;;;;;;;3.40;0.80;;;;;;;;;;5023432;28;20072;-60
2022/09/01 00:12:07;;;;;;;2.05;0.85;;;;;;;;;;5019852;28;20124;-61
2022/09/01 00:14:37;;;;;;;1.77;0.60;;;;;;;;;;5087057;28;20056;-61
2022/09/01 00:17:06;;;;;;;0.70;0.57;;;;;;;;;;5049147;28;20052;-61
2022/09/01 00:19:34;;;;;;;3.08;0.90;;;;;;;;;;5082885;28;20071;-61
2022/09/01 00:22:01;;;;;;;1.35;0.77;;;;;;;;;;5052865;28;20071;-60
2022/09/01 00:24:28;;;;;;;1.45;0.80;;;;;;;;;;5033264;28;20049;-61
2022/09/01 00:26:55;;;;;;;3.70;0.63;;;;;;;;;;5033030;28;20049;-61
2022/09/01 00:29:22;;;;;;;1.60;0.80;;;;;;;;;;5027721;28;20045;-61
2022/09/01 00:31:51;;;;;;;3.33;1.23;;;;;;;;;;5032985;28;20099;-60
2022/09/01 00:34:18;;;;;;;1.45;0.80;;;;;;;;;;5031557;28;20056;-61
2022/09/01 00:36:44;;;;;;;1.10;0.57;;;;;;;;;;5050730;28;20056;-61
2022/09/01 00:39:11;;;;;;;1.23;0.85;;;;;;;;;;5053364;28;20113;-61
2022/09/01 00:41:40;;;;;;;1.85;0.80;;;;;;;;;;5044216;28;20143;-61
2022/09/01 00:44:08;;;;;;;1.63;0.80;;;;;;;;;;5052427;28;20135;-61
2022/09/01 00:46:36;;;;;;;1.27;0.50;;;;;;;;;;5043312;28;20056;-62
2022/09/01 00:49:07;;;;;;;1.02;0.70;;;;;;;;;;5052444;28;20049;-61
2022/09/01 00:51:35;;;;;;;1.60;0.70;;;;;;;;;;5070435;28;20067;-61
2022/09/01 00:54:04;;;;;;;2.72;0.60;;;;;;;;;;5032805;28;20051;-61
2022/09/01 00:56:32;;;;;;;2.95;0.70;;;;;;;;;;5028918;28;20067;-61
2022/09/01 00:58:59;;;;;;;4.10;0.75;;;;;;;;;;5031145;28;20049;-61
2022/09/01 01:01:27;;;;;;;1.53;0.80;;;;;;;;;;5025245;28;20067;-61
2022/09/01 01:03:53;;;;;;;1.15;0.80;;;;;;;;;;5040782;28;20060;-61
2022/09/01 01:06:26;;;;;;;1.35;0.80;;;;;;;;;;5046271;28;20053;-60
2022/09/01 01:08:57;;;;;;;1.70;0.88;;;;;;;;;;5028709;28;20136;-61
2022/09/01 01:11:25;;;;;;;2.13;0.60;;;;;;;;;;5050886;28;20048;-61
2022/09/01 01:13:53;;;;;;;1.48;0.68;;;;;;;;;;5034236;28;20044;-61
2022/09/01 01:16:20;;;;;;;2.30;1.00;;;;;;;;;;5052708;28;20072;-61
2022/09/01 01:18:47;;;;;;;1.50;0.65;;;;;;;;;;5042981;28;20068;-61
2022/09/01 01:24:05;;;;;;;0.82;0.63;;;;;;;;;;5047279;28;20052;-61
2022/09/01 01:26:33;;;;;;;1.58;0.70;;;;;;;;;;5031650;28;20060;-61
2022/09/01 01:29:02;;;;;;;2.22;0.80;;;;;;;;;;5032208;28;20056;-61
2022/09/01 01:31:31;;;;;;;2.53;0.80;;;;;;;;;;5031754;28;20552;-62
2022/09/01 01:33:58;;;;;;;2.08;0.98;;;;;;;;;;5032540;28;20136;-61
2022/09/01 01:36:31;;;;;;;1.90;0.98;;;;;;;;;;5034900;28;20044;-61
2022/09/01 01:39:00;;;;;;;0.82;0.70;;;;;;;;;;5052036;28;20122;-61
2022/09/01 01:41:28;;;;;;;1.30;0.73;;;;;;;;;;5044980;28;20084;-61
2022/09/01 01:43:57;;;;;;;4.20;0.98;;;;;;;;;;5052131;28;20106;-61
2022/09/01 01:46:24;;;;;;;;;;;;;;;;;;5046997;28;20045;-61
2022/09/01 01:48:52;;;;;;;2.60;0.90;;;;;;;;;;5030559;28;19925;-61
2022/09/01 01:51:23;;;;;;;1.30;0.65;;;;;;;;;;5030759;28;20057;-61
2022/09/01 01:53:51;;;;;;;2.55;0.80;;;;;;;;;;5028486;28;20060;-61
2022/09/01 01:56:18;;;;;;;2.28;0.90;;;;;;;;;;5032155;28;20073;-61
2022/09/01 01:58:48;;;;;;;1.27;0.63;;;;;;;;;;5033866;28;20053;-61
2022/09/01 02:01:16;;;;;;;4.35;1.05;;;;;;;;;;5033086;28;20194;-61
2022/09/01 02:03:42;;;;;;;1.38;0.70;;;;;;;;;;5014560;28;20052;-62
2022/09/01 02:06:10;;;;;;;2.30;0.88;;;;;;;;;;5042469;28;20048;-61
2022/09/01 02:08:38;;;;;;;0.80;0.52;;;;;;;;;;5009607;28;20077;-61
2022/09/01 02:11:06;;;;;;;1.58;0.90;;;;;;;;;;5044264;28;20056;-61
2022/09/01 02:13:34;;;;;;;2.30;0.90;;;;;;;;;;5051579;28;20049;-61
2022/09/01 02:16:01;;;;;;;2.38;0.90;;;;;;;;;;5032167;28;20057;-61
2022/09/01 02:18:33;;;;;;;1.67;0.80;;;;;;;;;;5031591;28;20049;-61
2022/09/01 02:20:59;;;;;;;9.38;1.23;;;;;;;;;;5026739;28;20071;-61
2022/09/01 02:23:29;;;;;;;0.80;0.70;;;;;;;;;;5031660;28;20076;-61
2022/09/01 02:25:59;;;;;;;1.13;0.73;;;;;;;;;;5027090;28;20057;-61
2022/09/01 02:28:27;;;;;;;4.18;1.00;;;;;;;;;;5050817;28;20044;-61
2022/09/01 02:30:56;;;;;;;2.55;1.00;;;;;;;;;;5043179;28;20064;-61
2022/09/01 02:33:24;;;;;;;1.10;0.70;;;;;;;;;;5041203;28;20048;-60
2022/09/01 02:35:53;;;;;;;1.98;0.60;;;;;;;;;;5050519;28;20057;-61
2022/09/01 02:38:22;;;;;;;2.40;0.65;;;;;;;;;;5031618;28;20053;-61
2022/09/01 02:40:49;;;;;;;4.05;1.00;;;;;;;;;;5030085;28;20075;-61
2022/09/01 02:43:18;;;;;;;2.63;0.90;;;;;;;;;;5029377;28;20044;-61
2022/09/01 02:45:45;;;;;;;1.17;0.70;;;;;;;;;;5049535;28;20056;-61
2022/09/01 02:48:13;;;;;;;1.70;0.80;;;;;;;;;;5044806;28;20061;-61
2022/09/01 02:50:41;;;;;;;1.40;0.70;;;;;;;;;;5042385;28;20064;-61
2022/09/01 02:53:10;;;;;;;0.82;0.63;;;;;;;;;;5031321;28;20295;-61
2022/09/01 02:55:37;;;;;;;0.82;0.65;;;;;;;;;;5030231;28;20064;-61
2022/09/01 02:58:06;;;;;;;1.92;0.90;;;;;;;;;;5051010;28;20056;-61
2022/09/01 03:00:38;;;;;;;6.43;1.10;;;;;;;;;;5031809;28;20118;-61
2022/09/01 03:03:05;;;;;;;2.58;0.85;;;;;;;;;;5026463;28;20063;-61
2022/09/01 03:05:33;;;;;;;0.82;0.80;;;;;;;;;;5027978;28;20057;-61
2022/09/01 03:08:01;;;;;;;0.90;0.70;;;;;;;;;;5049825;28;20064;-61
2022/09/01 03:10:31;;;;;;;3.38;0.70;;;;;;;;;;5040364;28;20332;-61
2022/09/01 03:13:02;;;;;;;2.75;0.93;;;;;;;;;;5029902;28;20045;-61
2022/09/01 03:15:29;;;;;;;2.75;0.93;;;;;;;;;;5030350;28;20111;-61
2022/09/01 03:17:59;;;;;;;7.93;1.20;;;;;;;;;;5026562;28;20068;-62
2022/09/01 03:20:27;;;;;;;1.70;0.90;;;;;;;;;;5032472;28;20056;-62
2022/09/01 03:22:56;;;;;;;0.75;0.73;;;;;;;;;;5034107;28;20061;-61
2022/09/01 03:25:23;;;;;;;2.55;0.90;;;;;;;;;;5050168;28;20059;-61
2022/09/01 03:27:52;;;;;;;2.97;0.80;;;;;;;;;;5039816;28;20057;-61
2022/09/01 03:30:19;;;;;;;2.75;0.90;;;;;;;;;;5030341;28;20049;-61
2022/09/01 03:32:46;;;;;;;1.65;0.80;;;;;;;;;;5009984;28;20057;-61
2022/09/01 03:35:13;;;;;;;2.63;0.88;;;;;;;;;;5043916;28;20083;-62
2022/09/01 03:37:43;;;;;;;1.55;0.73;;;;;;;;;;5049862;28;20060;-61
2022/09/01 03:40:10;;;;;;;2.47;0.80;;;;;;;;;;5031598;28;20103;-61
2022/09/01 03:42:36;;;;;;;1.73;0.80;;;;;;;;;;5029592;28;20048;-61
2022/09/01 03:45:07;;;;;;;2.40;0.90;;;;;;;;;;5025383;28;20041;-61
2022/09/01 03:47:38;;;;;;;2.88;0.88;;;;;;;;;;5029135;28;20040;-61
2022/09/01 03:50:05;;;;;;;1.88;0.80;;;;;;;;;;5025978;28;20057;-61
2022/09/01 03:52:32;;;;;;;2.58;0.90;;;;;;;;;;5048865;28;20049;-61
2022/09/01 03:54:58;;;;;;;0.85;0.60;;;;;;;;;;5049029;28;20072;-61
2022/09/01 03:57:27;;;;;;;1.02;0.68;;;;;;;;;;5027316;28;20053;-61
2022/09/01 03:59:53;;;;;;;1.40;0.82;;;;;;;;;;5030762;28;20147;-61
2022/09/01 04:02:21;;;;;;;2.50;1.00;;;;;;;;;;5013529;28;20053;-61
2022/09/01 04:04:48;;;;;;;2.28;0.65;;;;;;;;;;5010281;28;20061;-61
2022/09/01 04:07:15;;;;;;;1.63;0.60;;;;;;;;;;5010783;28;20064;-61
2022/09/01 04:09:44;;;;;;;1.63;0.70;;;;;;;;;;5024430;28;20057;-61
2022/09/01 04:12:14;;;;;;;1.80;0.93;;;;;;;;;;5020060;28;20053;-61
2022/09/01 04:14:41;;;;;;;1.58;0.80;;;;;;;;;;5030801;28;20065;-60
2022/09/01 04:19:53;;;;;;;2.05;0.80;;;;;;;;;;5029438;28;20052;-61
2022/09/01 04:22:28;;;;;;;1.63;0.80;;;;;;;;;;5028487;28;20055;-61
2022/09/01 04:24:55;;;;;;;1.30;0.80;;;;;;;;;;5023881;28;20064;-61
2022/09/01 04:27:25;;;;;;;4.45;0.93;;;;;;;;;;5029858;28;20057;-60
2022/09/01 04:29:52;;;;;;;1.92;0.80;;;;;;;;;;5020452;28;20056;-61
2022/09/01 04:32:20;;;;;;;4.32;0.88;;;;;;;;;;5029690;28;20076;-61
2022/09/01 04:34:47;;;;;;;1.75;0.90;;;;;;;;;;5020009;28;20053;-61
2022/09/01 04:37:16;;;;;;;2.13;0.85;;;;;;;;;;5031310;28;20055;-62
2022/09/01 04:39:48;;;;;;;1.52;0.70;;;;;;;;;;5021442;28;20172;-61
2022/09/01 04:42:15;;;;;;;2.03;0.75;;;;;;;;;;5029864;28;20053;-61
2022/09/01 04:44:44;;;;;;;1.42;0.57;;;;;;;;;;5030391;28;20057;-61
2022/09/01 04:47:15;;;;;;;3.13;0.95;;;;;;;;;;5021837;28;20154;-62
2022/09/01 04:49:44;;;;;;;1.27;0.80;;;;;;;;;;5030848;28;20176;-61
2022/09/01 04:52:11;;;;;;;1.13;0.73;;;;;;;;;;5018978;28;20139;-61
2022/09/01 04:54:39;;;;;;;3.53;0.85;;;;;;;;;;5030912;28;20071;-62
2022/09/01 04:57:06;;;;;;;2.85;1.10;;;;;;;;;;5021295;28;20152;-66
2022/09/01 04:59:34;;;;;;;2.10;0.93;;;;;;;;;;5030203;28;20053;-60
2022/09/01 05:02:01;;;;;;;1.83;0.90;;;;;;;;;;5017003;28;20055;-61
2022/09/01 05:04:32;;;;;;;2.10;0.80;;;;;;;;;;5031730;28;20131;-61
2022/09/01 05:06:59;;;;;;;1.70;1.00;;;;;;;;;;5062247;28;20077;-60
2022/09/01 05:09:29;;;;;;;1.85;0.93;;;;;;;;;;5057659;28;20095;-61
2022/09/01 05:12:09;;;;;;;2.50;0.95;;;;;;;;;;5064180;28;20095;-61
2022/09/01 05:14:36;;;;;;;2.78;0.93;;;;;;;;;;5020563;28;20049;-61
2022/09/01 05:17:09;;;;;;;2.75;1.02;;;;;;;;;;5030143;28;20281;-61
2022/09/01 05:19:43;;;;;;;1.92;0.90;;;;;;;;;;5022427;28;20184;-61
2022/09/01 05:22:12;;;;;;;2.42;1.02;;;;;;;;;;5029161;28;20076;-61
2022/09/01 05:24:38;;;;;;;3.60;1.30;;;;;;;;;;5019246;28;20135;-61
2022/09/01 05:27:07;;;;;;;4.47;0.95;;;;;;;;;;5031272;28;20044;-61
2022/09/01 05:29:37;;;;;;;;;;;;;;;;;;5027971;28;20111;-61
2022/09/01 05:32:10;;;;;;;1.15;0.70;;;;;;;;;;5025943;28;19935;-61
2022/09/01 05:34:38;;;;;;;3.70;1.00;;;;;;;;;;5027379;28;20057;-61
2022/09/01 05:37:07;;;;;;;0.73;0.63;;;;;;;;;;5020118;28;20080;-61
2022/09/01 05:39:34;;;;;;;;;;;;;;;;;;5030839;28;20052;-61
2022/09/01 05:42:04;;;;;;;1.75;0.77;;;;;;;;;;5035713;28;19924;-61
2022/09/01 05:44:33;;;;;;;1.27;0.88;;;;;;;;;;5053205;28;20171;-61
2022/09/01 05:47:04;;;;;;;3.17;1.20;;;;;;;;;;5041714;28;20064;-61
2022/09/01 05:49:31;;;;;;;2.15;0.70;;;;;;;;;;5031364;28;20057;-61
2022/09/01 05:51:58;;;;;;;0.60;0.60;;;;;;;;;;5028909;28;20052;-61
2022/09/01 05:54:26;;;;;;;3.88;1.00;;;;;;;;;;5030265;28;20091;-61
2022/09/01 05:56:53;;;;;;;2.33;1.00;;;;;;;;;;5031826;28;20063;-61
2022/09/01 05:59:19;;;;;;;1.55;0.85;;;;;;;;;;5039547;28;20326;-60
2022/09/01 06:01:48;;;;;;;1.63;0.77;;;;;;;;;;5043798;28;20147;-61
2022/09/01 06:04:14;;;;;;;1.60;0.70;;;;;;;;;;5016054;28;20118;-61
2022/09/01 06:06:45;;;;;;;1.48;0.82;;;;;;;;;;5054305;28;20147;-61
2022/09/01 06:09:14;;;;;;;2.40;0.90;;;;;;;;;;5041967;28;20056;-61
2022/09/01 06:11:41;;;;;;;2.13;0.98;;;;;;;;;;5049639;28;20053;-60
2022/09/01 06:14:10;;;;;;;3.05;1.02;;;;;;;;;;5043228;28;20118;-60
2022/09/01 06:16:36;;;;;;;;;;;;;;;;;;5050312;28;20090;-60
2022/09/01 06:19:05;;;;;;;2.45;0.80;;;;;;;;;;5051342;28;19921;-61
2022/09/01 06:21:32;;;;;;;0.90;0.63;;;;;;;;;;5048116;28;20056;-61
2022/09/01 06:23:58;;;;;;;2.70;0.90;;;;;;;;;;5052560;28;20063;-61
2022/09/01 06:26:27;;;;;;;1.50;0.75;;;;;;;;;;5050372;28;20052;-61
2022/09/01 06:28:54;;;;;;;1.08;0.82;;;;;;;;;;5067982;28;20052;-61
2022/09/01 06:31:22;;;;;;;3.22;0.80;;;;;;;;;;5058308;28;20060;-61
2022/09/01 06:33:50;;;;;;;2.85;0.80;;;;;;;;;;5051665;28;20110;-61
2022/09/01 06:36:20;;;;;;;4.15;1.27;;;;;;;;;;5033958;28;20044;-61
2022/09/01 06:38:51;;;;;;;3.17;0.90;;;;;;;;;;5049357;28;20119;-60
2022/09/01 06:41:18;;;;;;;1.00;0.60;;;;;;;;;;5051107;28;20107;-61
2022/09/01 06:43:48;;;;;;;1.08;0.82;;;;;;;;;;5046223;28;20056;-61
2022/09/01 06:46:15;;;;;;;6.50;0.93;;;;;;;;;;5051055;28;20052;-61
2022/09/01 06:48:46;;;;;;;1.50;0.82;;;;;;;;;;5048747;28;20056;-62
2022/09/01 06:51:14;;;;;;;4.00;1.00;;;;;;;;;;5062216;28;20044;-61
2022/09/01 06:53:42;;;;;;;1.53;0.80;;;;;;;;;;5062693;28;20048;-60
2022/09/01 06:56:12;;;;;;;1.23;0.68;;;;;;;;;;5031462;28;20091;-61
2022/09/01 06:58:40;;;;;;;3.63;0.70;;;;;;;;;;5031476;28;20040;-61
2022/09/01 07:01:13;;;;;;;1.63;0.70;;;;;;;;;;5058135;28;20052;-61
2022/09/01 07:03:40;;;;;;;2.28;0.70;;;;;;;;;;5067071;28;20056;-61
2022/09/01 07:06:11;;;;;;;1.00;0.70;;;;;;;;;;5034371;28;20048;-60
2022/09/01 07:08:38;;;;;;;1.48;0.82;;;;;;;;;;5030900;28;20053;-61
2022/09/01 07:11:07;;;;;;;3.22;0.73;;;;;;;;;;5026409;28;20063;-61
2022/09/01 07:13:35;;;;;;;1.65;0.75;;;;;;;;;;5031128;28;20060;-61
2022/09/01 07:16:05;;;;;;;2.33;1.00;;;;;;;;;;5026504;28;20060;-61
2022/09/01 07:18:32;;;;;;;2.75;0.90;;;;;;;;;;5048382;28;20055;-60
2022/09/01 07:21:06;;;;;;;1.30;0.80;;;;;;;;;;5050229;28;20044;-62
2022/09/01 07:23:32;;;;;;;1.52;0.80;;;;;;;;;;5025621;28;20144;-61
2022/09/01 07:25:59;;;;;;;3.63;0.77;;;;;;;;;;5031518;28;20049;-61
2022/09/01 07:28:31;;;;;;;1.20;0.70;;;;;;;;;;5024481;28;20107;-60
2022/09/01 07:30:57;;;;;;;1.58;0.70;;;;;;;;;;5029982;28;20064;-61
2022/09/01 07:33:26;;;;;;;2.10;0.85;;;;;;;;;;5010463;28;20100;-61
2022/09/01 07:35:54;;;;;;;3.20;0.82;;;;;;;;;;5027403;28;20065;-61
2022/09/01 07:38:21;;;;;;;1.25;0.68;;;;;;;;;;5024625;28;20060;-61
2022/09/01 07:41:15;;;;;;;3.45;0.70;;;;;;;;;;5030445;28;20083;-60
2022/09/01 07:43:43;;;;;;;1.70;0.90;;;;;;;;;;5025276;28;20103;-61
2022/09/01 07:46:12;;;;;;;1.23;0.75;;;;;;;;;;5031542;28;20136;-61
2022/09/01 07:48:40;;;;;;;2.00;0.80;;;;;;;;;;5018632;28;20041;-61
2022/09/01 07:51:07;;;;;;;4.30;0.70;;;;;;;;;;5022321;28;20053;-61
2022/09/01 07:53:35;;;;;;;4.03;0.77;;;;;;;;;;5020666;28;20121;-61
2022/09/01 07:56:08;;;;;;;1.80;0.67;;;;;;;;;;5015090;28;20104;-62
2022/09/01 07:58:36;;;;;;;3.97;1.08;;;;;;;;;;5016991;28;20052;-62
2022/09/01 08:01:07;;;;;;;2.42;0.80;;;;;;;;;;5034915;28;20045;-61
2022/09/01 08:03:34;;;;;;;2.30;0.90;;;;;;;;;;5028015;28;20140;-61
2022/09/01 08:06:05;;;;;;;2.72;0.90;;;;;;;;;;5045190;28;20049;-62
2022/09/01 08:08:31;;;;;;;8.65;1.17;;;;;;;;;;5041326;28;20047;-61
2022/09/01 08:10:58;;;;;;;1.38;0.90;;;;;;;;;;5030772;28;20084;-61
2022/09/01 08:13:25;;;;;;;1.73;0.82;;;;;;;;;;5026104;28;20062;-61
2022/09/01 08:15:51;;;;;;;5.07;0.82;;;;;;;;;;5050176;28;20055;-61
2022/09/01 08:18:19;;;;;;;1.85;0.70;;;;;;;;;;5050360;28;20059;-61
2022/09/01 08:20:47;;;;;;;1.27;0.80;;;;;;;;;;5044083;28;20063;-61
2022/09/01 08:23:14;;;;;;;1.92;0.88;;;;;;;;;;5050165;28;20051;-60
2022/09/01 08:25:42;;;;;;;3.08;0.90;;;;;;;;;;5044315;28;20048;-61
2022/09/01 08:28:11;;;;;;;1.48;0.55;;;;;;;;;;5049926;28;20124;-62
2022/09/01 08:30:38;;;;;;;4.53;0.82;;;;;;;;;;5041799;28;20060;-61
2022/09/01 08:33:05;;;;;;;2.08;0.80;;;;;;;;;;5030474;28;20057;-60
2022/09/01 08:35:33;;;;;;;1.50;0.60;;;;;;;;;;5025128;28;20068;-60
2022/09/01 08:38:01;;;;;;;2.25;0.90;;;;;;;;;;5029864;28;20073;-61
2022/09/01 08:40:29;;;;;;;2.67;0.73;;;;;;;;;;5034303;28;20057;-60
2022/09/01 08:43:00;;;;;;;8.40;0.93;;;;;;;;;;5050568;28;20053;-61
2022/09/01 08:45:29;;;;;;;1.35;0.63;;;;;;;;;;5044262;28;20064;-61
2022/09/01 08:48:00;;;;;;;6.93;0.85;;;;;;;;;;5045692;28;20059;-63
2022/09/01 08:50:27;;;;;;;3.75;0.60;;;;;;;;;;5040314;28;20136;-59
2022/09/01 08:52:58;;;;;;;1.40;0.70;;;;;;;;;;5033593;28;20045;-59
2022/09/01 08:55:28;;;;;;;1.60;0.85;;;;;;;;;;5024716;28;20046;-61
2022/09/01 08:57:57;;;;;;;1.83;0.70;;;;;;;;;;5029043;28;20061;-60
2022/09/01 09:00:25;;;;;;;3.03;1.08;;;;;;;;;;5027659;28;20109;-61
2022/09/01 09:02:57;;;;;;;2.95;0.75;;;;;;;;;;5049649;28;20049;-60
2022/09/01 09:05:31;;;;;;;2.03;0.70;;;;;;;;;;5042090;28;20053;-60
2022/09/01 09:08:05;;;;;;;2.42;0.80;;;;;;;;;;5049278;28;20057;-60
2022/09/01 09:10:36;;;;;;;1.83;0.77;;;;;;;;;;5045359;28;20091;-60
2022/09/01 09:13:08;;;;;;;2.15;0.80;;;;;;;;;;5029978;28;20099;-61
2022/09/01 09:15:39;;;;;;;1.63;0.70;;;;;;;;;;5046220;28;20053;-61
2022/09/01 09:18:12;;;;;;;1.25;0.57;;;;;;;;;;5047306;28;20044;-61
2022/09/01 09:20:39;;;;;;;5.18;0.90;;;;;;;;;;5048435;28;20212;-60
2022/09/01 09:23:11;;;;;;;1.70;0.85;;;;;;;;;;5043333;28;20052;-60
2022/09/01 09:25:38;;;;;;;1.10;0.55;;;;;;;;;;5049246;28;20068;-61
2022/09/01 09:28:05;;;;;;;3.47;0.70;;;;;;;;;;5044156;28;20052;-62
2022/09/01 09:30:32;;;;;;;1.95;0.70;;;;;;;;;;5049417;28;20060;-62
2022/09/01 09:33:02;;;;;;;0.65;0.55;;;;;;;;;;5043462;28;20053;-59
2022/09/01 09:35:32;;;;;;;2.35;0.75;;;;;;;;;;5049352;28;20075;-62
2022/09/01 09:38:19;;;;;;;1.77;0.80;;;;;;;;;;5042401;28;20063;-63
2022/09/01 09:40:57;;;;;;;2.65;0.70;;;;;;;;;;5048056;28;20044;-63
2022/09/01 09:43:23;;;;;;;1.70;0.77;;;;;;;;;;5019845;28;20123;-63
2022/09/01 09:45:50;;;;;;;1.40;0.60;;;;;;;;;;5026963;28;20053;-63
2022/09/01 09:48:27;;;;;;;3.15;0.70;;;;;;;;;;5034446;28;20072;-63
2022/09/01 09:50:54;;;;;;;2.92;0.63;;;;;;;;;;5042788;28;20053;-63
2022/09/01 09:53:26;;;;;;;1.73;0.80;;;;;;;;;;5042983;28;20053;-63
2022/09/01 09:55:54;;;;;;;6.03;0.95;;;;;;;;;;5030390;28;20053;-63
2022/09/01 09:58:25;;;;;;;0.77;0.57;;;;;;;;;;5023435;28;20057;-63
2022/09/01 10:01:02;;;;;;;2.30;0.65;;;;;;;;;;5028221;28;20057;-63
2022/09/01 10:03:36;;;;;;;1.40;0.73;;;;;;;;;;5026827;28;20045;-63
2022/09/01 10:06:03;;;;;;;2.00;0.70;;;;;;;;;;5044665;28;20062;-63
2022/09/01 10:08:43;;;;;;;0.60;0.60;;;;;;;;;;5037784;28;20106;-63
2022/09/01 10:11:13;;;;;;;1.88;0.75;;;;;;;;;;5047741;28;20053;-64
2022/09/01 10:13:41;;;;;;;2.78;0.85;;;;;;;;;;5026817;28;20072;-62
2022/09/01 10:16:12;;;;;;;1.23;0.80;;;;;;;;;;5030285;28;20057;-62
2022/09/01 10:18:41;;;;;;;3.08;0.90;;;;;;;;;;5015238;28;20051;-63
2022/09/01 10:21:09;;;;;;;1.50;0.77;;;;;;;;;;5024080;28;20091;-64
2022/09/01 10:23:37;;;;;;;1.05;0.70;;;;;;;;;;5030879;28;20143;-64
2022/09/01 10:26:07;;;;;;;1.95;0.60;;;;;;;;;;5024083;28;20152;-64
2022/09/01 10:28:38;;;;;;;1.23;0.70;;;;;;;;;;5030654;28;20056;-62
2022/09/01 10:31:07;;;;;;;2.03;0.80;;;;;;;;;;5024305;28;20053;-63
2022/09/01 10:33:34;;;;;;;1.55;0.80;;;;;;;;;;5031212;28;20057;-62
2022/09/01 10:36:01;;;;;;;1.30;0.60;;;;;;;;;;5026844;28;20051;-62
2022/09/01 10:38:28;;;;;;;0.57;0.47;;;;;;;;;;5028591;28;20083;-62
2022/09/01 10:41:07;;;;;;;0.73;0.60;;;;;;;;;;5031742;28;20052;-62
2022/09/01 10:43:40;;;;;;;1.90;0.90;;;;;;;;;;5024114;28;20086;-63
2022/09/01 10:46:26;;;;;;;1.05;0.70;;;;;;;;;;5031606;28;20160;-63
2022/09/01 10:48:55;;;;;;;1.73;0.82;;;;;;;;;;5021957;28;20049;-63
2022/09/01 10:51:40;;;;;;;1.02;0.60;;;;;;;;;;5031065;28;20059;-64
2022/09/01 10:54:07;;;;;;;1.67;0.60;;;;;;;;;;5024348;28;20053;-61
2022/09/01 10:56:38;;;;;;;1.60;0.80;;;;;;;;;;5031467;28;20122;-62
2022/09/01 10:59:07;;;;;;;1.45;0.70;;;;;;;;;;5023953;28;20061;-62
2022/09/01 11:02:01;;;;;;;0.80;0.50;;;;;;;;;;5030621;28;20057;-63
2022/09/01 11:04:42;;;;;;;2.20;0.77;;;;;;;;;;4979418;28;20046;-64
2022/09/01 11:07:29;;;;;;;1.10;0.70;;;;;;;;;;5030260;28;20060;-64
2022/09/01 11:10:11;;;;;;;0.98;0.70;;;;;;;;;;5032378;28;20051;-63
2022/09/01 11:13:01;;;;;;;1.90;0.63;;;;;;;;;;5051410;28;20045;-65
2022/09/01 11:15:38;;;;;;;1.75;0.80;;;;;;;;;;5043304;28;20056;-62
2022/09/01 11:18:09;;;;;;;1.08;0.60;;;;;;;;;;5049464;28;29102;-64
2022/09/01 11:20:37;;;;;;;1.63;0.70;;;;;;;;;;5045162;28;20067;-64
2022/09/01 11:23:11;;;;;;;0.50;0.50;;;;;;;;;;5046914;28;20135;-63
2022/09/01 11:25:40;;;;;;;2.80;0.60;;;;;;;;;;5050794;28;20049;-61
2022/09/01 11:28:06;;;;;;;;;;;;;;;;;;5044081;28;20049;-64
2022/09/01 11:30:36;;;;;;;2.40;0.80;;;;;;;;;;5050448;28;19932;-64
2022/09/01 11:33:11;;;;;;;1.38;0.73;;;;;;;;;;5044401;28;20053;-64
2022/09/01 11:35:38;;;;;;;1.20;0.60;;;;;;;;;;5051160;28;20053;-63
2022/09/01 11:38:07;;;;;;;2.25;0.80;;;;;;;;;;5043588;28;20045;-64
2022/09/01 11:40:36;;;;;;;2.55;0.90;;;;;;;;;;5039510;28;20048;-63
2022/09/01 11:43:06;;;;;;;4.10;0.57;;;;;;;;;;5045042;28;20587;-62
2022/09/01 11:45:33;;;;;;;1.73;0.60;;;;;;;;;;5049561;28;20056;-64
2022/09/01 11:48:02;;;;;;;3.60;0.70;;;;;;;;;;5049999;28;20136;-63
2022/09/01 11:50:30;;;;;;;2.22;0.52;;;;;;;;;;5044025;28;20055;-62
2022/09/01 11:52:58;;;;;;;3.28;0.60;;;;;;;;;;5067144;28;20055;-63
2022/09/01 11:55:29;;;;;;;2.75;0.77;;;;;;;;;;5051052;28;20098;-64
2022/09/01 11:57:57;;;;;;;1.25;0.80;;;;;;;;;;5050425;28;20063;-64
2022/09/01 12:00:29;;;;;;;6.15;1.00;;;;;;;;;;5043128;28;20114;-63
2022/09/01 12:02:56;;;;;;;1.25;0.60;;;;;;;;;;5047864;28;20063;-61
2022/09/01 12:05:25;;;;;;;1.05;0.60;;;;;;;;;;5031427;28;20053;-64
2022/09/01 12:07:51;;;;;;;4.68;0.90;;;;;;;;;;5049587;28;20135;-63
2022/09/01 12:10:20;;;;;;;2.38;0.70;;;;;;;;;;5057405;28;20053;-64
2022/09/01 12:12:46;;;;;;;;;;;;;;;;;;5046148;28;20132;-63
2022/09/01 12:15:20;;;;;;;2.15;0.80;;;;;;;;;;5049770;28;19959;-63
2022/09/01 12:17:47;;;;;;;1.45;0.65;;;;;;;;;;5044113;28;20106;-62
2022/09/01 12:20:25;;;;;;;1.20;0.73;;;;;;;;;;5049578;28;20075;-62
2022/09/01 12:22:52;;;;;;;3.30;0.65;;;;;;;;;;5036249;28;20049;-61
2022/09/01 12:25:22;;;;;;;1.45;0.73;;;;;;;;;;5030782;28;20045;-64
2022/09/01 12:27:50;;;;;;;1.65;0.65;;;;;;;;;;5028906;28;20082;-65
2022/09/01 12:30:19;;;;;;;2.03;0.90;;;;;;;;;;5065567;28;20060;-64
2022/09/01 12:32:45;;;;;;;1.58;0.70;;;;;;;;;;5029118;28;20048;-63
2022/09/01 12:35:17;;;;;;;3.08;0.80;;;;;;;;;;5049207;28;20068;-63
2022/09/01 12:37:44;;;;;;;1.38;0.68;;;;;;;;;;5053770;28;20079;-63
2022/09/01 12:40:21;;;;;;;3.90;0.90;;;;;;;;;;5044410;28;20114;-62
2022/09/01 12:42:50;;;;;;;1.55;0.63;;;;;;;;;;5035097;28;20107;-62
2022/09/01 12:45:36;;;;;;;1.58;0.77;;;;;;;;;;5038769;28;20052;-63
2022/09/01 12:48:24;;;;;;;2.88;0.80;;;;;;;;;;5053354;28;20057;-62
2022/09/01 12:50:51;;;;;;;0.82;0.60;;;;;;;;;;5038327;28;20052;-63
2022/09/01 12:53:20;;;;;;;1.92;1.02;;;;;;;;;;5033120;28;20045;-64
2022/09/01 12:56:04;;;;;;;1.17;0.55;;;;;;;;;;5031964;28;20166;-64
2022/09/01 12:58:33;;;;;;;1.70;0.57;;;;;;;;;;5053397;28;20079;-63
2022/09/01 13:01:03;;;;;;;1.52;0.77;;;;;;;;;;5049613;28;20139;-62
2022/09/01 13:03:31;;;;;;;1.40;0.63;;;;;;;;;;5050107;28;20087;-64
2022/09/01 13:05:58;;;;;;;1.97;0.80;;;;;;;;;;5052374;28;20053;-63
2022/09/01 13:08:27;;;;;;;1.20;0.70;;;;;;;;;;5064563;28;20040;-65
2022/09/01 13:10:53;;;;;;;;;;;;;;;;;;5053195;28;20052;-63
2022/09/01 13:13:20;;;;;;;2.65;0.70;;;;;;;;;;5037803;28;19961;-63
2022/09/01 13:15:49;;;;;;;0.70;0.63;;;;;;;;;;5033206;28;20084;-63
2022/09/01 13:18:17;;;;;;;0.57;0.50;;;;;;;;;;5031119;28;20055;-63
2022/09/01 13:20:44;;;;;;;1.33;0.80;;;;;;;;;;5052686;28;20048;-63
2022/09/01 13:23:11;;;;;;;1.77;0.70;;;;;;;;;;5052381;28;20060;-64
2022/09/01 13:25:38;;;;;;;2.03;0.68;;;;;;;;;;5061805;28;20131;-63
2022/09/01 13:28:06;;;;;;;1.30;0.82;;;;;;;;;;5068099;28;20143;-63
2022/09/01 13:30:33;;;;;;;1.17;0.70;;;;;;;;;;5049135;28;20053;-63
2022/09/01 13:33:00;;;;;;;4.45;0.85;;;;;;;;;;5052243;28;20060;-64
2022/09/01 13:35:28;;;;;;;2.15;0.70;;;;;;;;;;5043920;28;20076;-64
2022/09/01 13:37:55;;;;;;;2.00;0.70;;;;;;;;;;5049505;28;20044;-63
2022/09/01 13:40:22;;;;;;;1.05;0.70;;;;;;;;;;5045021;28;20044;-64
2022/09/01 13:42:49;;;;;;;2.72;0.70;;;;;;;;;;5052569;28;20056;-64
2022/09/01 13:45:17;;;;;;;3.63;1.02;;;;;;;;;;5046395;28;20041;-63
2022/09/01 13:47:44;;;;;;;1.80;0.82;;;;;;;;;;5052225;28;20083;-64
2022/09/01 13:50:12;;;;;;;1.97;0.87;;;;;;;;;;5045536;28;20071;-63
2022/09/01 13:52:41;;;;;;;1.33;0.70;;;;;;;;;;5035711;28;20377;-62
2022/09/01 13:55:09;;;;;;;1.25;0.73;;;;;;;;;;5046534;28;20060;-63
2022/09/01 13:57:37;;;;;;;4.00;0.93;;;;;;;;;;5051423;28;20065;-64
2022/09/01 14:00:05;;;;;;;0.85;0.68;;;;;;;;;;5045898;28;20117;-64
2022/09/01 14:02:32;;;;;;;1.55;0.60;;;;;;;;;;5052391;28;20052;-64
2022/09/01 14:04:58;;;;;;;1.05;0.57;;;;;;;;;;5045007;28;20053;-62
2022/09/01 14:07:26;;;;;;;1.33;0.80;;;;;;;;;;5051874;28;20114;-63
2022/09/01 14:09:55;;;;;;;2.15;0.90;;;;;;;;;;5032707;28;20061;-65
2022/09/01 14:12:29;;;;;;;1.98;0.80;;;;;;;;;;5023354;28;20081;-64
2022/09/01 14:14:55;;;;;;;1.90;0.80;;;;;;;;;;5028625;28;20084;-64
2022/09/01 14:17:22;;;;;;;2.80;0.63;;;;;;;;;;5021962;28;20052;-63
2022/09/01 14:19:49;;;;;;;2.20;0.70;;;;;;;;;;5027927;28;20053;-64
2022/09/01 14:22:16;;;;;;;2.67;0.77;;;;;;;;;;5025825;28;20055;-64
2022/09/01 14:24:42;;;;;;;1.90;0.70;;;;;;;;;;5028009;28;20060;-64
2022/09/01 14:27:10;;;;;;;1.50;0.80;;;;;;;;;;5024967;28;20053;-65
2022/09/01 14:29:37;;;;;;;1.15;0.70;;;;;;;;;;5031939;28;20052;-64
2022/09/01 14:32:06;;;;;;;0.57;0.52;;;;;;;;;;5023373;28;20045;-64
2022/09/01 14:34:33;;;;;;;1.48;0.80;;;;;;;;;;5027675;28;20056;-64
2022/09/01 14:36:59;;;;;;;2.58;0.80;;;;;;;;;;5024880;28;20160;-63
2022/09/01 14:39:26;;;;;;;1.77;0.90;;;;;;;;;;5030863;28;20059;-64
2022/09/01 14:41:53;;;;;;;1.55;0.82;;;;;;;;;;5021295;28;20049;-65
2022/09/01 14:44:21;;;;;;;1.13;0.70;;;;;;;;;;5028451;28;20119;-64
2022/09/01 14:46:49;;;;;;;1.90;0.80;;;;;;;;;;5013416;28;20057;-64
2022/09/01 14:49:19;;;;;;;3.08;0.82;;;;;;;;;;5029092;28;20076;-64
2022/09/01 14:51:46;;;;;;;2.70;0.90;;;;;;;;;;5022715;28;20053;-64
2022/09/01 14:54:12;;;;;;;2.03;1.00;;;;;;;;;;5027684;28;20041;-64
2022/09/01 14:56:40;;;;;;;1.17;0.68;;;;;;;;;;5025527;28;20052;-62
2022/09/01 14:59:07;;;;;;;7.43;1.27;;;;;;;;;;5023658;28;20049;-61
2022/09/01 15:01:37;;;;;;;2.38;0.80;;;;;;;;;;5026771;28;20053;-60
2022/09/01 15:04:07;;;;;;;2.00;0.80;;;;;;;;;;5024420;28;20139;-62